createdAt,value
2023-05-21T00:00:53.880Z,76.49
2023-05-21T00:02:14.579Z,76.70
2023-05-21T00:03:17.731Z,76.84
2023-05-21T00:04:20.555Z,76.87
2023-05-21T00:05:24.108Z,76.88
2023-05-21T00:06:27.743Z,77.15
2023-05-21T00:07:31.623Z,77.04
2023-05-21T00:08:34.413Z,77.09
2023-05-21T00:09:40.401Z,77.29
2023-05-21T00:10:43.254Z,77.45
2023-05-21T00:11:45.971Z,77.32
2023-05-21T00:12:48.738Z,77.46
2023-05-21T00:13:51.489Z,77.49
2023-05-21T00:14:54.233Z,77.57
2023-05-21T00:15:56.939Z,77.44
2023-05-21T00:16:59.780Z,77.63
2023-05-21T00:18:02.745Z,77.96
2023-05-21T00:19:06.212Z,77.96
2023-05-21T00:20:09.361Z,77.96
2023-05-21T00:21:12.341Z,78.00
2023-05-21T00:22:16.033Z,78.16
2023-05-21T00:23:19.477Z,78.10
2023-05-21T00:24:22.231Z,78.07
2023-05-21T00:25:24.938Z,78.33
2023-05-21T00:26:27.715Z,78.33
2023-05-21T00:27:32.082Z,78.33
2023-05-21T00:28:34.955Z,78.54
2023-05-21T00:29:37.951Z,78.28
2023-05-21T00:30:41.056Z,78.29
2023-05-21T00:31:43.798Z,78.48
2023-05-21T00:32:46.727Z,78.43
2023-05-21T00:33:49.785Z,78.50
2023-05-21T00:34:52.529Z,78.73
2023-05-21T00:35:56.876Z,78.68
2023-05-21T00:36:59.604Z,78.72
2023-05-21T00:38:02.355Z,78.68
2023-05-21T00:39:05.792Z,78.70
2023-05-21T00:40:09.259Z,78.82
2023-05-21T00:41:12.031Z,78.91
2023-05-21T00:42:18.101Z,78.99
2023-05-21T00:43:26.087Z,78.98
2023-05-21T00:44:34.122Z,79.13
2023-05-21T00:45:37.552Z,79.21
2023-05-21T00:46:40.979Z,79.28
2023-05-21T00:47:44.255Z,79.32
2023-05-21T00:48:47.737Z,79.51
2023-05-21T00:49:52.964Z,79.52
2023-05-21T00:50:55.768Z,79.59
2023-05-21T00:52:01.457Z,79.70
2023-05-21T00:53:04.868Z,79.85
2023-05-21T00:54:08.402Z,79.91
2023-05-21T00:55:11.228Z,79.99
2023-05-21T00:56:14.112Z,79.95
2023-05-21T00:57:20.659Z,79.96
2023-05-21T00:58:23.687Z,80.07
2023-05-21T00:59:26.582Z,80.13
2023-05-21T01:00:29.606Z,80.19
2023-05-21T01:01:33.902Z,80.33
2023-05-21T01:02:37.490Z,80.30
2023-05-21T01:03:41.066Z,80.33
2023-05-21T01:04:46.818Z,80.51
2023-05-21T01:05:51.114Z,80.70
2023-05-21T01:06:56.212Z,80.58
2023-05-21T01:07:59.274Z,80.57
2023-05-21T01:09:04.426Z,80.56
2023-05-21T01:10:09.649Z,80.57
2023-05-21T01:11:12.851Z,80.48
2023-05-21T01:12:15.844Z,80.60
2023-05-21T01:13:20.664Z,80.86
2023-05-21T01:14:24.288Z,80.91
2023-05-21T01:15:27.575Z,80.86
2023-05-21T01:16:32.359Z,80.90
2023-05-21T01:17:35.701Z,80.97
2023-05-21T01:18:38.708Z,81.03
2023-05-21T01:19:44.497Z,80.82
2023-05-21T01:20:48.300Z,81.13
2023-05-21T01:21:56.831Z,81.35
2023-05-21T01:23:00.766Z,81.40
2023-05-21T01:24:05.641Z,81.41
2023-05-21T01:25:08.771Z,81.55
2023-05-21T01:26:12.996Z,81.76
2023-05-21T01:27:15.758Z,81.79
2023-05-21T01:28:18.533Z,81.85
2023-05-21T01:29:21.816Z,81.98
2023-05-21T01:32:01.489Z,82.15
2023-05-21T01:33:07.814Z,82.11
2023-05-21T01:34:12.309Z,82.24
2023-05-21T01:35:20.850Z,82.32
2023-05-21T01:36:26.274Z,82.39
2023-05-21T01:37:29.142Z,82.25
2023-05-21T01:38:31.881Z,82.33
2023-05-21T01:39:38.604Z,82.36
2023-05-21T01:40:53.304Z,82.39
2023-05-21T01:41:56.980Z,82.35
2023-05-21T01:42:59.775Z,82.50
2023-05-21T01:44:03.760Z,82.50
2023-05-21T01:45:08.006Z,82.50
2023-05-21T01:46:13.887Z,82.66
2023-05-21T01:47:17.906Z,82.78
2023-05-21T01:48:21.010Z,82.93
2023-05-21T01:49:24.026Z,82.85
2023-05-21T01:50:27.068Z,82.88
2023-05-21T01:51:30.200Z,82.92
2023-05-21T01:52:32.961Z,82.87
2023-05-21T01:53:35.838Z,83.09
2023-05-21T01:54:38.709Z,83.03
2023-05-21T01:55:42.032Z,83.25
2023-05-21T01:56:44.960Z,83.42
2023-05-21T01:57:47.781Z,83.40
2023-05-21T01:58:50.567Z,83.31
2023-05-21T01:59:53.494Z,83.59
2023-05-21T02:00:57.026Z,83.83
2023-05-21T02:01:59.896Z,83.61
2023-05-21T02:03:03.213Z,83.69
2023-05-21T02:04:06.176Z,83.67
2023-05-21T02:05:09.283Z,83.70
2023-05-21T02:06:12.042Z,83.88
2023-05-21T02:07:15.107Z,83.99
2023-05-21T02:08:19.704Z,83.58
2023-05-21T02:09:22.676Z,83.77
2023-05-21T02:10:25.497Z,84.01
2023-05-21T02:11:28.529Z,83.97
2023-05-21T02:12:31.304Z,83.87
2023-05-21T02:13:34.077Z,84.12
2023-05-21T02:14:39.159Z,84.31
2023-05-21T02:15:42.311Z,84.59
2023-05-21T02:16:45.175Z,84.47
2023-05-21T02:17:48.121Z,84.49
2023-05-21T02:18:57.424Z,84.75
2023-05-21T02:20:18.888Z,84.73
2023-05-21T02:21:21.736Z,84.70
2023-05-21T02:22:24.463Z,84.88
2023-05-21T02:23:27.245Z,84.91
2023-05-21T02:24:30.218Z,84.96
2023-05-21T02:25:33.122Z,84.74
2023-05-21T02:26:36.165Z,84.92
2023-05-21T02:27:39.467Z,85.13
2023-05-21T02:28:42.181Z,85.16
2023-05-21T02:29:44.987Z,85.20
2023-05-21T02:30:47.937Z,85.14
2023-05-21T02:31:51.371Z,85.15
2023-05-21T02:32:55.302Z,85.22
2023-05-21T02:33:58.174Z,85.27
2023-05-21T02:35:01.921Z,85.36
2023-05-21T02:36:05.064Z,85.38
2023-05-21T02:37:09.700Z,85.25
2023-05-21T02:38:13.692Z,85.26
2023-05-21T02:39:17.381Z,85.38
2023-05-21T02:40:20.138Z,85.33
2023-05-21T02:41:23.360Z,85.32
2023-05-21T02:42:26.290Z,85.43
2023-05-21T02:43:29.371Z,85.66
2023-05-21T02:44:32.204Z,85.56
2023-05-21T02:45:35.237Z,85.54
2023-05-21T02:46:38.276Z,85.56
2023-05-21T02:47:41.485Z,85.73
2023-05-21T02:48:44.447Z,85.74
2023-05-21T02:49:47.188Z,85.91
2023-05-21T02:50:50.459Z,85.99
2023-05-21T02:51:53.240Z,85.88
2023-05-21T02:52:56.097Z,86.01
2023-05-21T02:53:58.846Z,85.99
2023-05-21T02:55:02.598Z,86.20
2023-05-21T02:56:05.694Z,86.16
2023-05-21T02:57:08.604Z,86.13
2023-05-21T02:58:13.505Z,86.15
2023-05-21T02:59:16.467Z,86.29
2023-05-21T03:00:19.374Z,86.36
2023-05-21T03:01:22.261Z,86.15
2023-05-21T03:02:25.071Z,86.35
2023-05-21T03:03:28.229Z,86.48
2023-05-21T03:04:31.156Z,86.44
2023-05-21T03:05:34.001Z,86.61
2023-05-21T03:06:36.993Z,86.70
2023-05-21T03:07:39.791Z,86.80
2023-05-21T03:08:42.601Z,86.75
2023-05-21T03:09:45.662Z,86.86
2023-05-21T03:10:48.936Z,87.05
2023-05-21T03:11:51.896Z,87.02
2023-05-21T03:12:54.975Z,87.15
2023-05-21T03:13:58.356Z,87.16
2023-05-21T03:15:01.404Z,87.26
2023-05-21T03:16:04.268Z,87.26
2023-05-21T03:17:07.770Z,87.21
2023-05-21T03:18:11.808Z,87.31
2023-05-21T03:19:15.627Z,87.27
2023-05-21T03:20:19.040Z,87.39
2023-05-21T03:21:24.834Z,87.45
2023-05-21T03:22:27.844Z,87.41
2023-05-21T03:23:30.675Z,87.45
2023-05-21T03:24:33.615Z,87.32
2023-05-21T03:25:37.732Z,87.49
2023-05-21T03:26:40.869Z,87.56
2023-05-21T03:27:43.972Z,87.60
2023-05-21T03:28:59.265Z,87.59
2023-05-21T03:30:03.892Z,87.60
2023-05-21T03:31:08.426Z,87.72
2023-05-21T03:32:11.444Z,87.79
2023-05-21T03:33:14.269Z,87.77
2023-05-21T03:34:20.112Z,87.82
2023-05-21T03:35:23.797Z,87.83
2023-05-21T03:36:26.632Z,87.86
2023-05-21T03:37:29.337Z,87.80
2023-05-21T03:38:32.306Z,87.85
2023-05-21T03:39:35.520Z,87.89
2023-05-21T03:40:38.731Z,87.81
2023-05-21T03:41:41.780Z,88.03
2023-05-21T03:42:47.730Z,87.99
2023-05-21T03:43:50.787Z,88.16
2023-05-21T03:44:54.246Z,88.10
2023-05-21T03:46:12.156Z,88.14
2023-05-21T03:47:14.961Z,88.18
2023-05-21T03:48:18.215Z,88.32
2023-05-21T03:49:21.255Z,88.31
2023-05-21T03:50:25.391Z,88.36
2023-05-21T03:51:30.385Z,88.34
2023-05-21T03:52:33.584Z,88.36
2023-05-21T03:53:36.955Z,88.42
2023-05-21T03:54:39.918Z,88.39
2023-05-21T03:55:43.825Z,88.47
2023-05-21T03:56:46.527Z,88.62
2023-05-21T03:57:49.332Z,88.62
2023-05-21T03:58:52.823Z,88.75
2023-05-21T03:59:55.978Z,88.55
2023-05-21T04:00:59.040Z,88.61
2023-05-21T04:02:01.878Z,88.69
2023-05-21T04:03:04.715Z,88.53
2023-05-21T04:04:07.791Z,88.61
2023-05-21T04:05:10.761Z,88.44
2023-05-21T04:06:13.692Z,88.59
2023-05-21T04:07:19.223Z,88.63
2023-05-21T04:08:22.060Z,88.72
2023-05-21T04:09:24.844Z,88.78
2023-05-21T04:10:28.150Z,88.79
2023-05-21T04:11:31.543Z,88.84
2023-05-21T04:12:34.389Z,88.76
2023-05-21T04:13:37.209Z,88.91
2023-05-21T04:14:40.207Z,88.91
2023-05-21T04:15:44.585Z,88.85
2023-05-21T04:16:49.396Z,88.65
2023-05-21T04:17:52.442Z,88.68
2023-05-21T04:18:55.549Z,88.54
2023-05-21T04:19:58.808Z,88.61
2023-05-21T04:21:02.469Z,88.64
2023-05-21T04:22:05.606Z,88.78
2023-05-21T04:23:08.664Z,88.79
2023-05-21T04:24:11.757Z,88.81
2023-05-21T04:25:34.128Z,88.82
2023-05-21T04:26:38.173Z,88.73
2023-05-21T04:27:42.899Z,88.74
2023-05-21T04:28:46.044Z,88.61
2023-05-21T04:29:50.774Z,88.55
2023-05-21T04:30:53.746Z,88.65
2023-05-21T04:31:56.625Z,88.69
2023-05-21T04:33:00.376Z,88.75
2023-05-21T04:34:03.522Z,88.72
2023-05-21T04:35:06.613Z,88.59
2023-05-21T04:36:10.593Z,88.60
2023-05-21T04:37:13.817Z,88.92
2023-05-21T04:38:19.943Z,88.78
2023-05-21T04:39:22.895Z,88.70
2023-05-21T04:40:26.875Z,88.67
2023-05-21T04:41:29.760Z,88.55
2023-05-21T04:42:33.101Z,88.31
2023-05-21T04:43:36.793Z,88.02
2023-05-21T04:44:44.517Z,88.09
2023-05-21T04:45:47.677Z,88.16
2023-05-21T04:46:50.729Z,88.18
2023-05-21T04:47:53.780Z,87.92
2023-05-21T04:48:58.100Z,87.93
2023-05-21T04:50:01.940Z,87.78
2023-05-21T04:51:06.444Z,87.80
2023-05-21T04:52:09.157Z,87.89
2023-05-21T04:53:12.280Z,87.62
2023-05-21T04:54:15.596Z,87.49
2023-05-21T04:55:19.079Z,87.36
2023-05-21T04:56:22.382Z,87.26
2023-05-21T04:57:25.143Z,87.16
2023-05-21T04:58:28.640Z,87.18
2023-05-21T04:59:32.130Z,87.15
2023-05-21T05:00:37.781Z,86.96
2023-05-21T05:01:41.229Z,86.69
2023-05-21T05:02:44.203Z,86.43
2023-05-21T05:03:47.329Z,86.33
2023-05-21T05:04:50.261Z,86.63
2023-05-21T05:05:53.836Z,86.17
2023-05-21T05:06:56.584Z,86.31
2023-05-21T05:07:59.435Z,86.14
2023-05-21T05:09:02.267Z,86.01
2023-05-21T05:10:05.300Z,85.74
2023-05-21T05:11:08.689Z,85.45
2023-05-21T05:12:11.506Z,85.38
2023-05-21T05:13:14.357Z,85.30
2023-05-21T05:14:17.171Z,85.31
2023-05-21T05:15:20.232Z,85.19
2023-05-21T05:16:25.778Z,84.97
2023-05-21T05:17:32.059Z,84.78
2023-05-21T05:18:35.205Z,84.66
2023-05-21T05:19:38.212Z,84.36
2023-05-21T05:20:41.249Z,84.02
2023-05-21T05:21:44.124Z,84.02
2023-05-21T05:22:47.472Z,83.55
2023-05-21T05:23:50.321Z,83.26
2023-05-21T05:24:53.178Z,83.32
2023-05-21T05:25:56.156Z,83.38
2023-05-21T05:26:59.039Z,83.16
2023-05-21T05:28:01.863Z,83.03
2023-05-21T05:29:04.657Z,82.35
2023-05-21T05:30:07.776Z,82.23
2023-05-21T05:31:11.475Z,82.15
2023-05-21T05:32:14.330Z,82.06
2023-05-21T05:33:17.448Z,81.83
2023-05-21T05:34:20.205Z,81.29
2023-05-21T05:35:25.392Z,81.17
2023-05-21T05:36:28.513Z,80.66
2023-05-21T05:37:32.818Z,80.51
2023-05-21T05:38:36.102Z,80.25
2023-05-21T05:39:39.062Z,80.13
2023-05-21T05:40:41.880Z,79.90
2023-05-21T05:41:44.754Z,79.66
2023-05-21T05:42:49.434Z,79.27
2023-05-21T05:43:52.587Z,78.91
2023-05-21T05:44:57.056Z,78.32
2023-05-21T05:46:00.492Z,78.04
2023-05-21T05:47:03.406Z,78.02
2023-05-21T05:48:06.387Z,78.05
2023-05-21T05:49:09.214Z,77.86
2023-05-21T05:50:12.117Z,77.86
2023-05-21T05:51:15.484Z,77.72
2023-05-21T05:52:18.362Z,77.31
2023-05-21T05:53:21.105Z,77.29
2023-05-21T05:54:23.916Z,77.00
2023-05-21T05:55:26.930Z,76.66
2023-05-21T05:56:29.847Z,76.56
2023-05-21T05:57:32.636Z,76.34
2023-05-21T05:58:37.758Z,76.35
2023-05-21T05:59:46.976Z,75.70
2023-05-21T06:00:51.160Z,75.31
2023-05-21T06:01:53.995Z,74.99
2023-05-21T06:02:57.056Z,74.25
2023-05-21T06:04:00.001Z,74.03
2023-05-21T06:05:03.349Z,73.95
2023-05-21T06:06:06.378Z,74.24
2023-05-21T06:07:09.576Z,74.01
2023-05-21T06:08:12.426Z,73.54
2023-05-21T06:09:15.224Z,73.74
2023-05-21T06:10:18.774Z,73.66
2023-05-21T06:11:22.788Z,73.36
2023-05-21T06:12:25.748Z,73.49
2023-05-21T06:13:28.532Z,73.30
2023-05-21T06:14:31.392Z,73.08
2023-05-21T06:15:34.384Z,72.47
2023-05-21T06:16:37.507Z,72.26
2023-05-21T06:17:41.007Z,72.17
2023-05-21T06:18:43.971Z,72.20
2023-05-21T06:19:47.025Z,72.33
2023-05-21T06:20:50.359Z,71.06
2023-05-21T06:21:53.528Z,70.94
2023-05-21T06:22:56.400Z,70.91
2023-05-21T06:23:59.513Z,70.62
2023-05-21T06:25:04.928Z,70.53
2023-05-21T06:26:07.860Z,70.31
2023-05-21T06:27:11.069Z,69.41
2023-05-21T06:28:14.507Z,68.82
2023-05-21T06:29:17.649Z,68.45
2023-05-21T06:30:22.118Z,68.47
2023-05-21T06:31:25.004Z,68.27
2023-05-21T06:32:28.155Z,68.03
2023-05-21T06:33:31.981Z,68.16
2023-05-21T06:34:35.164Z,67.84
2023-05-21T06:35:39.992Z,67.77
2023-05-21T06:36:43.523Z,67.79
2023-05-21T06:37:46.737Z,67.62
2023-05-21T06:38:49.566Z,67.54
2023-05-21T06:39:52.347Z,66.94
2023-05-21T06:40:55.223Z,67.10
2023-05-21T06:42:12.442Z,66.61
2023-05-21T06:43:35.524Z,66.98
2023-05-21T06:45:04.924Z,67.06
2023-05-21T06:46:13.527Z,67.35
2023-05-21T06:47:16.621Z,67.37
2023-05-21T06:48:19.699Z,67.54
2023-05-21T06:49:23.649Z,67.39
2023-05-21T06:50:27.963Z,67.57
2023-05-21T06:51:31.236Z,67.62
2023-05-21T06:52:34.214Z,67.76
2023-05-21T06:53:37.506Z,67.62
2023-05-21T06:54:40.720Z,67.73
2023-05-21T06:55:46.515Z,67.58
2023-05-21T06:56:57.083Z,67.21
2023-05-21T06:58:00.317Z,67.34
2023-05-21T06:59:03.160Z,67.13
2023-05-21T07:00:06.411Z,67.43
2023-05-21T07:01:10.144Z,67.48
2023-05-21T07:02:13.072Z,67.17
2023-05-21T07:03:16.301Z,67.29
2023-05-21T07:04:19.372Z,67.13
2023-05-21T07:05:22.177Z,67.32
2023-05-21T07:06:24.973Z,67.56
2023-05-21T07:07:28.478Z,67.47
2023-05-21T07:08:31.393Z,67.28
2023-05-21T07:09:34.734Z,66.80
2023-05-21T07:10:37.672Z,67.00
2023-05-21T07:11:41.785Z,66.83
2023-05-21T07:12:44.946Z,66.62
2023-05-21T07:13:48.140Z,66.84
2023-05-21T07:14:51.658Z,66.05
2023-05-21T07:15:54.427Z,66.25
2023-05-21T07:16:57.348Z,66.27
2023-05-21T07:18:00.440Z,66.52
2023-05-21T07:19:03.332Z,66.18
2023-05-21T07:20:07.806Z,66.44
2023-05-21T07:21:11.433Z,66.04
2023-05-21T07:22:14.580Z,66.13
2023-05-21T07:23:18.005Z,66.37
2023-05-21T07:24:21.936Z,66.27
2023-05-21T07:25:24.981Z,66.58
2023-05-21T07:26:27.861Z,66.83
2023-05-21T07:27:30.820Z,66.11
2023-05-21T07:28:33.556Z,66.55
2023-05-21T07:29:37.012Z,67.20
2023-05-21T07:30:39.888Z,67.10
2023-05-21T07:31:45.952Z,66.80
2023-05-21T07:32:48.938Z,66.86
2023-05-21T07:33:51.804Z,66.31
2023-05-21T07:34:56.842Z,65.98
2023-05-21T07:36:00.988Z,66.20
2023-05-21T07:37:04.978Z,66.32
2023-05-21T07:38:07.819Z,66.10
2023-05-21T07:39:10.650Z,66.13
2023-05-21T07:40:14.066Z,66.40
2023-05-21T07:41:18.821Z,66.55
2023-05-21T07:42:22.636Z,66.21
2023-05-21T07:43:25.460Z,66.49
2023-05-21T07:44:28.257Z,66.73
2023-05-21T07:45:31.081Z,66.53
2023-05-21T07:46:34.743Z,66.59
2023-05-21T07:47:37.673Z,66.58
2023-05-21T07:48:41.832Z,66.82
2023-05-21T07:49:44.609Z,66.71
2023-05-21T07:50:49.719Z,66.13
2023-05-21T07:51:52.561Z,65.99
2023-05-21T07:52:55.841Z,66.01
2023-05-21T07:53:58.751Z,66.12
2023-05-21T07:55:08.966Z,66.29
2023-05-21T07:56:12.032Z,66.38
2023-05-21T07:57:15.043Z,66.00
2023-05-21T07:58:26.849Z,65.51
2023-05-21T07:59:30.516Z,65.59
2023-05-21T08:00:42.144Z,65.68
2023-05-21T08:01:44.951Z,65.82
2023-05-21T08:02:48.095Z,66.01
2023-05-21T08:03:51.507Z,66.24
2023-05-21T08:04:55.225Z,65.78
2023-05-21T08:05:58.333Z,65.13
2023-05-21T08:07:01.209Z,65.28
2023-05-21T08:08:05.196Z,65.43
2023-05-21T08:09:08.572Z,65.60
2023-05-21T08:10:11.729Z,65.09
2023-05-21T08:11:15.802Z,65.59
2023-05-21T08:12:19.809Z,65.37
2023-05-21T08:13:22.771Z,65.49
2023-05-21T08:14:26.159Z,64.84
2023-05-21T08:15:29.329Z,64.82
2023-05-21T08:16:32.168Z,64.81
2023-05-21T08:17:35.058Z,64.58
2023-05-21T08:18:37.833Z,64.01
2023-05-21T08:19:42.062Z,64.47
2023-05-21T08:20:45.348Z,64.17
2023-05-21T08:21:48.965Z,64.16
2023-05-21T08:22:53.611Z,63.87
2023-05-21T08:23:57.253Z,63.93
2023-05-21T08:25:01.905Z,63.31
2023-05-21T08:26:04.769Z,63.56
2023-05-21T08:27:07.862Z,63.64
2023-05-21T08:28:10.619Z,63.74
2023-05-21T08:29:13.348Z,63.88
2023-05-21T08:30:16.479Z,63.32
2023-05-21T08:31:20.386Z,63.59
2023-05-21T08:32:23.480Z,62.89
2023-05-21T08:33:26.522Z,63.14
2023-05-21T08:34:29.476Z,63.38
2023-05-21T08:35:43.830Z,63.32
2023-05-21T08:36:57.138Z,63.34
2023-05-21T08:38:22.577Z,63.49
2023-05-21T08:39:36.117Z,63.62
2023-05-21T08:40:39.096Z,63.72
2023-05-21T08:41:46.631Z,63.95
2023-05-21T08:42:49.633Z,63.46
2023-05-21T08:43:57.791Z,62.90
2023-05-21T08:45:04.853Z,62.73
2023-05-21T08:46:09.590Z,62.55
2023-05-21T08:47:16.599Z,62.80
2023-05-21T08:48:19.959Z,62.59
2023-05-21T08:49:27.471Z,62.48
2023-05-21T08:50:31.568Z,61.51
2023-05-21T08:51:36.332Z,61.66
2023-05-21T08:52:39.256Z,61.56
2023-05-21T08:53:42.438Z,61.63
2023-05-21T08:54:46.396Z,61.47
2023-05-21T08:55:52.583Z,60.93
2023-05-21T08:56:56.668Z,60.91
2023-05-21T08:58:01.606Z,60.77
2023-05-21T08:59:04.606Z,60.99
2023-05-21T09:00:11.362Z,60.87
2023-05-21T09:01:14.494Z,61.37
2023-05-21T09:02:21.801Z,61.71
2023-05-21T09:03:25.274Z,61.58
2023-05-21T09:04:28.746Z,61.92
2023-05-21T09:05:31.731Z,61.98
2023-05-21T09:06:34.539Z,61.42
2023-05-21T09:07:44.570Z,61.58
2023-05-21T09:09:17.598Z,60.84
2023-05-21T09:10:27.409Z,60.89
2023-05-21T09:11:30.399Z,61.12
2023-05-21T09:12:34.819Z,61.36
2023-05-21T09:13:39.143Z,62.00
2023-05-21T09:14:47.280Z,61.68
2023-05-21T09:15:55.943Z,60.83
2023-05-21T09:17:00.059Z,60.26
2023-05-21T09:18:10.180Z,59.99
2023-05-21T09:19:22.418Z,60.42
2023-05-21T09:20:26.520Z,60.55
2023-05-21T09:21:33.337Z,61.27
2023-05-21T09:22:43.221Z,61.33
2023-05-21T09:23:46.006Z,61.26
2023-05-21T09:24:51.660Z,61.31
2023-05-21T09:25:54.733Z,61.13
2023-05-21T09:27:02.513Z,61.65
2023-05-21T09:28:11.648Z,61.50
2023-05-21T09:29:16.266Z,61.14
2023-05-21T09:30:34.848Z,61.16
2023-05-21T09:31:43.347Z,60.87
2023-05-21T09:32:53.111Z,59.87
2023-05-21T09:33:56.441Z,59.95
2023-05-21T09:35:12.922Z,59.87
2023-05-21T09:36:17.764Z,59.22
2023-05-21T09:38:30.317Z,59.03
2023-05-21T09:39:33.623Z,59.17
2023-05-21T09:40:43.834Z,59.01
2023-05-21T09:41:46.749Z,58.89
2023-05-21T09:42:51.237Z,58.79
2023-05-21T09:43:58.617Z,59.02
2023-05-21T09:45:02.040Z,58.52
2023-05-21T09:46:06.403Z,58.68
2023-05-21T09:47:09.713Z,58.51
2023-05-21T09:48:12.789Z,58.57
2023-05-21T09:49:23.586Z,58.31
2023-05-21T09:50:31.656Z,58.44
2023-05-21T09:51:39.498Z,58.31
2023-05-21T09:52:42.456Z,58.79
2023-05-21T09:54:01.211Z,58.99
2023-05-21T09:55:05.575Z,58.81
2023-05-21T09:56:09.217Z,58.68
2023-05-21T09:57:14.350Z,58.45
2023-05-21T09:58:17.189Z,58.68
2023-05-21T09:59:20.614Z,58.84
2023-05-21T10:00:24.387Z,58.98
2023-05-21T10:01:28.170Z,58.25
2023-05-21T10:02:31.692Z,57.70
2023-05-21T10:03:38.959Z,57.45
2023-05-21T10:04:42.748Z,57.48
2023-05-21T10:05:45.737Z,58.00
2023-05-21T10:06:50.019Z,57.11
2023-05-21T10:07:54.433Z,57.01
2023-05-21T10:08:59.499Z,56.35
2023-05-21T10:10:03.901Z,56.58
2023-05-21T10:11:06.994Z,56.17
2023-05-21T10:12:10.904Z,55.89
2023-05-21T10:13:15.016Z,55.87
2023-05-21T10:14:20.248Z,56.57
2023-05-21T10:15:24.250Z,56.73
2023-05-21T10:16:27.259Z,56.23
2023-05-21T10:17:30.821Z,56.04
2023-05-21T10:18:35.073Z,56.45
2023-05-21T10:19:38.972Z,56.34
2023-05-21T10:20:42.594Z,55.91
2023-05-21T10:21:45.923Z,55.68
2023-05-21T10:22:50.602Z,56.02
2023-05-21T10:23:56.513Z,56.19
2023-05-21T10:24:59.447Z,56.62
2023-05-21T10:26:03.169Z,56.18
2023-05-21T10:27:07.183Z,55.22
2023-05-21T10:28:10.275Z,55.47
2023-05-21T10:29:17.452Z,55.15
2023-05-21T10:30:23.381Z,54.89
2023-05-21T10:31:26.760Z,54.62
2023-05-21T10:32:30.449Z,54.54
2023-05-21T10:33:35.900Z,54.25
2023-05-21T10:34:38.891Z,54.81
2023-05-21T10:35:42.160Z,55.46
2023-05-21T10:36:46.227Z,54.31
2023-05-21T10:37:49.774Z,53.91
2023-05-21T10:38:53.273Z,54.45
2023-05-21T10:39:56.850Z,54.70
2023-05-21T10:41:00.733Z,55.11
2023-05-21T10:42:03.697Z,54.53
2023-05-21T10:43:18.433Z,54.08
2023-05-21T10:44:40.048Z,53.25
2023-05-21T10:45:52.075Z,53.06
2023-05-21T10:47:13.428Z,53.11
2023-05-21T10:48:23.781Z,52.56
2023-05-21T10:49:34.306Z,52.95
2023-05-21T10:50:57.416Z,54.01
2023-05-21T10:52:19.106Z,53.94
2023-05-21T10:53:40.604Z,54.19
2023-05-21T10:55:03.792Z,53.99
2023-05-21T10:56:25.448Z,53.54
2023-05-21T10:57:46.673Z,52.97
2023-05-21T10:59:07.874Z,53.36
2023-05-21T11:00:12.689Z,53.30
2023-05-21T11:01:16.604Z,54.14
2023-05-21T11:02:20.053Z,53.85
2023-05-21T11:03:23.200Z,54.66
2023-05-21T11:04:27.039Z,54.97
2023-05-21T11:05:41.365Z,54.87
2023-05-21T11:06:48.198Z,54.87
2023-05-21T11:07:56.505Z,54.40
2023-05-21T11:09:12.691Z,54.90
2023-05-21T11:10:34.228Z,54.30
2023-05-21T11:11:43.564Z,54.06
2023-05-21T11:13:06.056Z,54.25
2023-05-21T11:14:28.150Z,53.61
2023-05-21T11:15:31.062Z,53.95
2023-05-21T11:16:40.548Z,53.12
2023-05-21T11:17:44.656Z,53.36
2023-05-21T11:18:47.930Z,53.08
2023-05-21T11:19:51.671Z,52.99
2023-05-21T11:20:54.427Z,53.28
2023-05-21T11:21:57.331Z,52.70
2023-05-21T11:23:00.180Z,52.29
2023-05-21T11:24:18.521Z,52.55
2023-05-21T11:25:21.588Z,51.71
2023-05-21T11:26:31.029Z,52.06
2023-05-21T11:27:38.033Z,51.88
2023-05-21T11:28:41.481Z,51.88
2023-05-21T11:29:44.942Z,51.43
2023-05-21T11:31:07.727Z,49.43
2023-05-21T11:32:13.820Z,48.78
2023-05-21T11:33:19.910Z,48.34
2023-05-21T11:34:29.625Z,49.19
2023-05-21T11:35:36.171Z,48.67
2023-05-21T11:36:39.460Z,49.25
2023-05-21T11:37:43.737Z,48.99
2023-05-21T11:39:07.159Z,49.24
2023-05-21T11:40:16.747Z,47.78
2023-05-21T11:41:20.082Z,46.46
2023-05-21T11:42:30.527Z,47.80
2023-05-21T11:43:33.272Z,45.55
2023-05-21T11:44:48.238Z,46.01
2023-05-21T11:45:53.185Z,45.43
2023-05-21T11:46:56.589Z,46.22
2023-05-21T11:48:00.261Z,46.33
2023-05-21T11:49:03.796Z,46.10
2023-05-21T11:50:12.186Z,46.54
2023-05-21T11:51:15.226Z,46.47
2023-05-21T11:52:19.796Z,46.33
2023-05-21T11:53:22.599Z,45.47
2023-05-21T11:54:26.135Z,44.07
2023-05-21T11:55:29.010Z,43.77
2023-05-21T11:56:33.037Z,45.19
2023-05-21T11:57:35.842Z,45.00
2023-05-21T11:58:42.197Z,44.34
2023-05-21T11:59:47.571Z,43.95
2023-05-21T12:00:51.176Z,44.56
2023-05-21T12:01:55.261Z,44.46
2023-05-21T12:02:58.958Z,44.24
2023-05-21T12:04:04.385Z,43.46
2023-05-21T12:05:13.155Z,43.63
2023-05-21T12:06:20.302Z,43.33
2023-05-21T12:07:23.188Z,42.78
2023-05-21T12:08:27.196Z,43.34
2023-05-21T12:09:30.335Z,41.95
2023-05-21T12:10:37.711Z,42.30
2023-05-21T12:11:41.553Z,41.19
2023-05-21T12:12:54.899Z,41.11
2023-05-21T12:13:59.744Z,40.74
2023-05-21T12:15:02.679Z,41.17
2023-05-21T12:16:07.315Z,40.79
2023-05-21T12:17:10.698Z,41.86
2023-05-21T12:18:15.175Z,42.24
2023-05-21T12:19:19.334Z,42.01
2023-05-21T12:20:22.230Z,42.00
2023-05-21T12:21:27.191Z,40.98
2023-05-21T12:22:30.422Z,41.08
2023-05-21T12:23:33.482Z,41.11
2023-05-21T12:24:36.839Z,40.14
2023-05-21T12:25:40.740Z,41.22
2023-05-21T12:26:46.004Z,40.57
2023-05-21T12:27:52.892Z,40.66
2023-05-21T12:28:57.252Z,39.62
2023-05-21T12:30:00.643Z,39.55
2023-05-21T12:31:03.536Z,38.09
2023-05-21T12:32:08.948Z,39.10
2023-05-21T12:33:12.349Z,39.30
2023-05-21T12:34:18.683Z,38.77
2023-05-21T12:35:24.881Z,38.31
2023-05-21T12:36:27.995Z,37.64
2023-05-21T12:37:35.739Z,37.45
2023-05-21T12:38:38.960Z,37.53
2023-05-21T12:39:45.549Z,36.88
2023-05-21T12:40:48.441Z,37.20
2023-05-21T12:41:54.181Z,35.76
2023-05-21T12:42:57.067Z,36.37
2023-05-21T12:44:00.681Z,35.75
2023-05-21T12:45:07.041Z,35.34
2023-05-21T12:46:14.991Z,35.10
2023-05-21T12:47:18.431Z,34.52
2023-05-21T12:48:21.288Z,34.29
2023-05-21T12:49:55.401Z,34.75
2023-05-21T12:51:05.307Z,34.05
2023-05-21T12:53:07.360Z,33.13
2023-05-21T12:54:37.357Z,32.42
2023-05-21T12:55:44.974Z,32.33
2023-05-21T12:59:08.424Z,30.71
2023-05-21T13:00:32.466Z,31.54
2023-05-21T13:01:41.469Z,31.38
2023-05-21T13:02:47.539Z,30.77
2023-05-21T13:03:50.978Z,29.14
2023-05-21T13:05:01.116Z,30.72
2023-05-21T13:06:22.232Z,31.02
2023-05-21T13:07:37.905Z,30.78
2023-05-21T13:08:41.076Z,30.04
2023-05-21T13:09:46.293Z,28.62
2023-05-21T13:10:49.619Z,28.48
2023-05-21T13:11:55.051Z,29.46
2023-05-21T13:12:58.423Z,28.98
2023-05-21T13:14:01.716Z,29.05
2023-05-21T13:15:08.579Z,29.29
2023-05-21T13:16:11.629Z,29.10
2023-05-21T13:17:15.045Z,29.48
2023-05-21T13:18:18.136Z,29.98
2023-05-21T13:19:21.144Z,29.75
2023-05-21T13:20:28.054Z,29.53
2023-05-21T13:21:31.245Z,30.20
2023-05-21T13:22:35.423Z,29.29
2023-05-21T13:23:39.653Z,28.63
2023-05-21T13:31:11.634Z,27.57
2023-05-21T13:32:31.730Z,28.15
2023-05-21T13:35:12.594Z,28.84
2023-05-21T13:37:17.716Z,28.84
2023-05-21T13:38:22.210Z,28.17
2023-05-21T13:39:29.194Z,27.91
2023-05-21T13:40:38.719Z,28.12
2023-05-21T13:41:43.913Z,28.21
2023-05-21T13:42:47.759Z,27.82
2023-05-21T13:43:51.944Z,27.92
2023-05-21T13:44:54.711Z,28.53
2023-05-21T13:46:00.490Z,28.51
2023-05-21T13:47:03.804Z,28.42
2023-05-21T13:48:07.066Z,28.65
2023-05-21T13:49:10.114Z,27.74
2023-05-21T13:50:13.063Z,27.13
2023-05-21T13:51:30.808Z,27.21
2023-05-21T13:52:39.478Z,27.55
2023-05-21T13:53:42.445Z,27.26
2023-05-21T13:54:45.280Z,27.25
2023-05-21T13:55:48.083Z,27.26
2023-05-21T13:56:51.017Z,26.94
2023-05-21T13:57:53.863Z,27.27
2023-05-21T13:58:56.807Z,26.66
2023-05-21T14:00:00.849Z,26.79
2023-05-21T14:01:03.854Z,26.75
2023-05-21T14:02:08.888Z,26.93
2023-05-21T14:03:12.296Z,27.25
2023-05-21T14:04:15.395Z,26.87
2023-05-21T14:05:18.372Z,26.72
2023-05-21T14:06:21.257Z,26.87
2023-05-21T14:07:24.646Z,25.89
2023-05-21T14:08:29.407Z,25.13
2023-05-21T14:09:32.772Z,25.26
2023-05-21T14:10:35.937Z,25.74
2023-05-21T14:11:41.618Z,25.58